Time;durP1;ratioP1;P1;durP2;ratioP2;P2;SDS_P1;SDS_P2;PMS_P1;PMS_P2;Temp;Humidity;BMP_temperature;BMP_pressure;BME280_temperature;BME280_humidity;BME280_pressure;Samples;Min_cycle;Max_cycle;Signal;HPM_P1;HPM_P2
2023/07/19 00:02:01;;;;;;;6.28;3.30;;;19.70;67.90;;;;;;4900111;29;20132;-84
2023/07/19 00:04:26;;;;;;;9.23;3.03;;;19.70;68.10;;;;;;4910249;29;20062;-85
2023/07/19 00:06:52;;;;;;;5.70;2.90;;;19.70;68.30;;;;;;4907377;29;20124;-84
2023/07/19 00:09:18;;;;;;;8.77;3.38;;;19.70;68.30;;;;;;4913175;29;20028;-84
2023/07/19 00:11:43;;;;;;;8.27;3.05;;;19.70;68.30;;;;;;4907620;28;20051;-84
2023/07/19 00:14:09;;;;;;;7.85;3.25;;;19.70;68.20;;;;;;4907695;29;20533;-84
2023/07/19 00:16:35;;;;;;;7.55;2.95;;;19.60;68.10;;;;;;4910431;28;20565;-83
2023/07/19 00:19:01;;;;;;;6.95;3.50;;;19.60;68.00;;;;;;4913249;29;20040;-84
2023/07/19 00:21:27;;;;;;;7.35;2.85;;;19.70;67.40;;;;;;4912942;28;20056;-84
2023/07/19 00:23:53;;;;;;;8.15;3.08;;;19.70;66.50;;;;;;4909722;29;20039;-84
2023/07/19 00:26:18;;;;;;;9.93;3.03;;;19.70;66.20;;;;;;4903224;28;20036;-85
2023/07/19 00:28:44;;;;;;;9.15;3.35;;;19.70;65.80;;;;;;4907191;29;20088;-83
2023/07/19 00:31:09;;;;;;;7.05;2.95;;;19.70;66.00;;;;;;4908995;29;20035;-84
2023/07/19 00:33:35;;;;;;;6.97;3.30;;;19.70;66.20;;;;;;4907543;29;20033;-84
2023/07/19 00:36:01;;;;;;;5.47;2.72;;;19.70;66.40;;;;;;4911487;29;20388;-84
2023/07/19 00:38:27;;;;;;;10.57;3.50;;;19.60;66.60;;;;;;4918672;29;20059;-85
2023/07/19 00:40:52;;;;;;;9.85;3.70;;;19.70;67.00;;;;;;4915187;28;20043;-84
2023/07/19 00:43:18;;;;;;;8.95;3.90;;;19.70;67.50;;;;;;4905161;29;20553;-83
2023/07/19 00:45:51;;;;;;;7.35;3.15;;;19.70;67.70;;;;;;4908756;29;20479;-83
2023/07/19 00:48:17;;;;;;;10.00;3.77;;;19.70;68.00;;;;;;4903326;29;20112;-83
2023/07/19 00:50:44;;;;;;;8.00;3.15;;;19.60;68.10;;;;;;4897403;28;20041;-83
2023/07/19 00:53:11;;;;;;;6.82;3.13;;;19.70;68.10;;;;;;4916229;29;20032;-83
2023/07/19 00:55:38;;;;;;;9.93;3.63;;;19.60;68.20;;;;;;4902114;28;20045;-83
2023/07/19 00:58:05;;;;;;;9.63;3.53;;;19.60;67.80;;;;;;4920878;29;20024;-84
2023/07/19 01:00:31;;;;;;;7.97;3.47;;;19.60;67.50;;;;;;4908656;28;20151;-84
2023/07/19 01:02:59;;;;;;;8.43;3.40;;;19.60;67.20;;;;;;4906574;29;20028;-84
2023/07/19 01:05:25;;;;;;;7.07;3.53;;;19.60;67.00;;;;;;4906831;28;20024;-84
2023/07/19 01:07:53;;;;;;;10.02;3.88;;;19.60;66.60;;;;;;4899808;29;20519;-85
2023/07/19 01:10:18;;;;;;;7.38;3.22;;;19.60;66.50;;;;;;4905756;28;20593;-84
2023/07/19 01:12:44;;;;;;;6.43;3.05;;;19.60;66.70;;;;;;4907200;29;20046;-84
2023/07/19 01:15:10;;;;;;;8.15;3.72;;;19.60;66.80;;;;;;4904260;28;20052;-83
2023/07/19 01:17:36;;;;;;;9.38;3.42;;;19.60;66.90;;;;;;4907353;29;20115;-84
2023/07/19 01:20:02;;;;;;;9.32;4.15;;;19.60;66.90;;;;;;4906567;28;20382;-84
2023/07/19 01:22:33;;;;;;;9.73;4.18;;;19.60;67.00;;;;;;4906760;29;20111;-83
2023/07/19 01:24:59;;;;;;;10.43;4.13;;;19.60;66.70;;;;;;4909605;28;20035;-83
2023/07/19 01:27:25;;;;;;;9.75;4.03;;;19.60;66.90;;;;;;4907185;29;20063;-84
2023/07/19 01:29:51;;;;;;;8.48;3.63;;;19.50;66.90;;;;;;4913238;29;20078;-84
2023/07/19 01:32:17;;;;;;;10.20;4.65;;;19.50;67.00;;;;;;4911677;28;20103;-84
2023/07/19 01:34:43;;;;;;;8.90;4.25;;;19.50;66.80;;;;;;4910973;29;20024;-83
2023/07/19 01:37:09;;;;;;;9.00;4.20;;;19.50;66.90;;;;;;4909088;28;20033;-83
2023/07/19 01:39:34;;;;;;;7.90;4.00;;;19.50;67.00;;;;;;4913021;29;20051;-83
2023/07/19 01:42:00;;;;;;;9.52;4.15;;;19.40;67.00;;;;;;4907665;28;20046;-83
2023/07/19 01:44:26;;;;;;;12.02;4.40;;;19.40;67.40;;;;;;4912108;29;20023;-84
2023/07/19 01:46:52;;;;;;;8.02;3.90;;;19.40;67.40;;;;;;4914958;28;20134;-83
2023/07/19 01:49:18;;;;;;;11.27;4.05;;;19.40;67.60;;;;;;4905610;29;20453;-84
2023/07/19 01:51:43;;;;;;;11.40;4.47;;;19.30;67.80;;;;;;4916203;28;20768;-84
2023/07/19 01:54:09;;;;;;;9.57;4.20;;;19.30;68.00;;;;;;4910132;29;20091;-84
2023/07/19 01:56:35;;;;;;;11.15;4.28;;;19.30;68.10;;;;;;4905210;28;20059;-83
2023/07/19 01:59:00;;;;;;;11.93;4.35;;;19.30;68.20;;;;;;4914482;29;20095;-84
2023/07/19 02:01:26;;;;;;;11.05;4.90;;;19.30;68.30;;;;;;4908410;28;20099;-83
2023/07/19 02:03:52;;;;;;;11.73;5.10;;;19.30;68.50;;;;;;4923207;29;20032;-84
2023/07/19 02:06:17;;;;;;;12.52;5.03;;;19.30;68.40;;;;;;4905338;28;20820;-84
2023/07/19 02:08:43;;;;;;;11.55;5.10;;;19.20;68.70;;;;;;4918378;29;20089;-84
2023/07/19 02:11:09;;;;;;;10.93;5.38;;;19.10;68.90;;;;;;4908422;28;20732;-85
2023/07/19 02:13:34;;;;;;;12.07;5.25;;;19.10;68.80;;;;;;4914276;29;20544;-84
2023/07/19 02:16:00;;;;;;;14.13;5.60;;;19.10;68.90;;;;;;4918403;28;20048;-84
2023/07/19 02:18:26;;;;;;;11.27;5.55;;;19.20;68.50;;;;;;4912293;29;20024;-84
2023/07/19 02:20:53;;;;;;;12.73;5.90;;;19.10;68.60;;;;;;4911802;28;20059;-84
2023/07/19 02:23:19;;;;;;;11.23;5.88;;;19.10;68.30;;;;;;4909215;29;20043;-84
2023/07/19 02:25:49;;;;;;;16.60;5.47;;;19.10;68.20;;;;;;4918334;28;20581;-82
2023/07/19 02:28:15;;;;;;;11.20;5.20;;;19.10;67.90;;;;;;4916977;29;20034;-82
2023/07/19 02:30:45;;;;;;;10.38;4.47;;;19.00;67.40;;;;;;4909691;28;20497;-83
2023/07/19 02:33:12;;;;;;;12.10;4.53;;;19.00;66.00;;;;;;4912287;29;20433;-83
2023/07/19 02:35:38;;;;;;;12.68;4.75;;;18.90;65.70;;;;;;4904533;28;20146;-84
2023/07/19 02:38:03;;;;;;;10.13;4.47;;;18.90;65.60;;;;;;4899674;29;20487;-84
2023/07/19 02:40:29;;;;;;;7.28;3.95;;;18.90;65.50;;;;;;4906503;28;20051;-84
2023/07/19 02:42:55;;;;;;;9.82;4.15;;;18.90;65.60;;;;;;4923502;29;20036;-84
2023/07/19 02:45:22;;;;;;;11.65;4.75;;;18.90;65.40;;;;;;4909343;28;20036;-84
2023/07/19 02:47:47;;;;;;;10.80;4.03;;;18.90;64.90;;;;;;4911186;29;20032;-85
2023/07/19 02:50:13;;;;;;;9.25;3.75;;;18.70;64.70;;;;;;4907311;28;20036;-84
2023/07/19 02:52:39;;;;;;;9.85;3.60;;;18.70;64.40;;;;;;4912066;29;20020;-84
2023/07/19 02:55:05;;;;;;;9.20;3.20;;;18.70;64.40;;;;;;4911629;28;20488;-86
2023/07/19 02:57:31;;;;;;;8.43;3.40;;;18.70;64.20;;;;;;4922213;29;20098;-84
2023/07/19 02:59:56;;;;;;;11.18;3.28;;;18.60;64.10;;;;;;4902445;28;20032;-83
2023/07/19 03:02:22;;;;;;;8.55;3.13;;;18.60;64.00;;;;;;4905189;29;20027;-85
2023/07/19 03:04:48;;;;;;;10.80;3.15;;;18.60;64.10;;;;;;4909769;29;20099;-84
2023/07/19 03:07:14;;;;;;;8.07;3.30;;;18.60;64.30;;;;;;4901878;29;20045;-85
2023/07/19 03:09:40;;;;;;;9.63;3.25;;;18.60;64.40;;;;;;4903998;29;20028;-84
2023/07/19 03:12:06;;;;;;;12.38;3.17;;;18.50;64.50;;;;;;4905120;29;20048;-83
2023/07/19 03:14:32;;;;;;;9.68;3.03;;;18.50;64.50;;;;;;4910680;29;20024;-84
2023/07/19 03:16:57;;;;;;;7.05;3.00;;;18.50;64.70;;;;;;4911949;28;20374;-84
2023/07/19 03:19:23;;;;;;;8.32;2.70;;;18.50;64.90;;;;;;4912343;29;20512;-84
2023/07/19 03:21:49;;;;;;;6.47;2.83;;;18.40;64.90;;;;;;4912253;29;20412;-83
2023/07/19 03:24:14;;;;;;;5.63;2.65;;;18.40;65.10;;;;;;4904491;29;20035;-83
2023/07/19 03:26:40;;;;;;;8.52;3.00;;;18.50;65.20;;;;;;4915851;28;20044;-82
2023/07/19 03:29:06;;;;;;;8.68;2.92;;;18.50;65.10;;;;;;4906796;29;20067;-83
2023/07/19 03:31:31;;;;;;;8.60;3.08;;;18.40;65.40;;;;;;4916305;28;20481;-83
2023/07/19 03:33:57;;;;;;;7.32;2.85;;;18.40;65.40;;;;;;4907059;29;20069;-83
2023/07/19 03:36:23;;;;;;;7.63;2.80;;;18.30;65.70;;;;;;4905853;29;20058;-82
2023/07/19 03:38:49;;;;;;;7.70;2.85;;;18.40;66.00;;;;;;4914349;29;20499;-82
2023/07/19 03:41:15;;;;;;;7.88;2.80;;;18.30;66.40;;;;;;4909671;29;20040;-84
2023/07/19 03:43:40;;;;;;;11.55;2.50;;;18.20;66.90;;;;;;4910350;29;20032;-84
2023/07/19 03:46:07;;;;;;;7.82;2.72;;;18.20;67.10;;;;;;4904713;29;20036;-84
2023/07/19 03:48:34;;;;;;;7.65;2.83;;;18.30;67.10;;;;;;4905028;29;20037;-85
2023/07/19 03:51:02;;;;;;;7.18;2.72;;;18.20;67.40;;;;;;4910616;29;20047;-84
2023/07/19 03:53:28;;;;;;;7.57;3.20;;;18.10;67.70;;;;;;4906710;29;20036;-83
2023/07/19 03:55:59;;;;;;;11.82;2.63;;;18.10;67.80;;;;;;4910029;29;20257;-84
2023/07/19 03:58:25;;;;;;;8.30;2.95;;;18.20;68.00;;;;;;4912482;29;20644;-83
2023/07/19 04:00:55;;;;;;;8.13;2.78;;;18.20;68.20;;;;;;4902113;29;20046;-83
2023/07/19 04:03:22;;;;;;;9.43;2.90;;;18.10;68.30;;;;;;4909358;29;20063;-83
2023/07/19 04:05:47;;;;;;;7.60;2.80;;;18.10;68.40;;;;;;4906541;29;20151;-83
2023/07/19 04:08:14;;;;;;;7.78;2.67;;;18.20;68.50;;;;;;4905822;29;20083;-84
2023/07/19 04:10:41;;;;;;;8.65;2.28;;;18.10;68.40;;;;;;4907699;28;20127;-84
2023/07/19 04:13:07;;;;;;;7.45;2.70;;;18.10;68.70;;;;;;4917831;29;20078;-84
2023/07/19 04:15:33;;;;;;;6.32;2.22;;;18.10;68.60;;;;;;4904879;28;20050;-83
2023/07/19 04:17:59;;;;;;;7.55;2.50;;;18.10;68.60;;;;;;4919194;29;20040;-83
2023/07/19 04:20:27;;;;;;;10.38;3.15;;;18.10;68.60;;;;;;4906056;28;20044;-84
2023/07/19 04:22:53;;;;;;;7.78;2.50;;;18.20;68.70;;;;;;4907637;29;20036;-83
2023/07/19 04:25:21;;;;;;;10.60;2.80;;;18.20;68.60;;;;;;4908837;28;20042;-84
2023/07/19 04:27:47;;;;;;;9.93;2.97;;;18.20;68.70;;;;;;4904258;29;20024;-83
2023/07/19 04:30:13;;;;;;;8.75;2.70;;;18.20;68.80;;;;;;4925074;29;20028;-85
2023/07/19 04:32:39;;;;;;;7.30;2.50;;;18.10;68.90;;;;;;4924239;29;20036;-84
2023/07/19 04:35:06;;;;;;;8.82;2.65;;;18.20;69.00;;;;;;4930115;29;20105;-85
2023/07/19 04:37:32;;;;;;;6.60;2.78;;;18.20;68.90;;;;;;4931094;29;20464;-84
2023/07/19 04:39:58;;;;;;;9.93;3.13;;;18.30;68.60;;;;;;4910678;28;20071;-83
2023/07/19 04:42:24;;;;;;;10.75;3.20;;;18.30;68.40;;;;;;4907051;29;20118;-83
2023/07/19 04:44:50;;;;;;;9.43;2.90;;;18.30;68.00;;;;;;4914341;29;20368;-82
2023/07/19 04:47:16;;;;;;;8.77;2.97;;;18.30;68.10;;;;;;4914521;28;20052;-82
2023/07/19 04:49:42;;;;;;;11.90;3.28;;;18.30;68.20;;;;;;4901603;29;20029;-82
2023/07/19 04:52:08;;;;;;;10.40;2.80;;;18.30;68.40;;;;;;4909213;28;20036;-83
2023/07/19 04:54:34;;;;;;;7.45;2.35;;;18.30;68.30;;;;;;4909888;29;20488;-82
2023/07/19 04:57:00;;;;;;;9.05;3.25;;;18.30;68.40;;;;;;4905875;29;21259;-84
2023/07/19 04:59:26;;;;;;;10.10;2.72;;;18.40;68.30;;;;;;4919381;29;20417;-83
2023/07/19 05:01:52;;;;;;;8.93;2.90;;;18.40;68.10;;;;;;4905406;28;20679;-84
2023/07/19 05:04:18;;;;;;;7.38;2.67;;;18.40;68.30;;;;;;4904879;29;20104;-83
2023/07/19 05:06:44;;;;;;;7.22;2.70;;;18.30;68.70;;;;;;4914631;29;20025;-82
2023/07/19 05:09:10;;;;;;;9.73;3.08;;;18.40;68.30;;;;;;4917084;29;20461;-83
2023/07/19 05:11:36;;;;;;;11.13;3.22;;;18.30;68.70;;;;;;4909638;29;20461;-83
2023/07/19 05:14:02;;;;;;;8.55;2.72;;;18.30;68.70;;;;;;4913735;29;20035;-85
2023/07/19 05:16:28;;;;;;;7.53;3.00;;;18.30;69.00;;;;;;4918684;29;20215;-84
2023/07/19 05:18:53;;;;;;;8.32;2.88;;;18.30;69.00;;;;;;4909439;29;20481;-83
2023/07/19 05:21:19;;;;;;;9.95;2.75;;;18.40;69.00;;;;;;4911295;29;20048;-84
2023/07/19 05:23:45;;;;;;;10.20;2.80;;;18.50;68.90;;;;;;4902925;29;20465;-84
2023/07/19 05:26:11;;;;;;;8.43;2.90;;;18.60;68.40;;;;;;4908246;29;20802;-83
2023/07/19 05:28:37;;;;;;;8.35;3.15;;;18.50;68.80;;;;;;4906638;29;20111;-84
2023/07/19 05:31:04;;;;;;;7.70;2.78;;;18.50;68.50;;;;;;4916351;29;20041;-84
2023/07/19 05:33:30;;;;;;;9.15;3.03;;;18.50;68.90;;;;;;4911902;29;20032;-84
2023/07/19 05:35:56;;;;;;;13.00;4.13;;;18.60;69.00;;;;;;4910466;29;20044;-83
2023/07/19 05:38:22;;;;;;;14.35;3.20;;;18.60;68.80;;;;;;4900691;29;20055;-84
2023/07/19 05:40:47;;;;;;;6.63;2.50;;;18.60;69.00;;;;;;4907660;29;20484;-84
2023/07/19 05:43:13;;;;;;;9.15;2.90;;;18.70;68.80;;;;;;4915664;29;20032;-83
2023/07/19 05:45:39;;;;;;;11.30;3.00;;;18.80;68.30;;;;;;4907989;29;20064;-84
2023/07/19 05:48:05;;;;;;;6.88;2.30;;;19.00;68.20;;;;;;4904444;29;20037;-83
2023/07/19 05:50:30;;;;;;;9.57;2.92;;;19.10;68.00;;;;;;4909350;28;20043;-84
2023/07/19 05:52:56;;;;;;;10.77;3.53;;;19.20;67.70;;;;;;4909521;29;20024;-83
2023/07/19 05:55:23;;;;;;;7.85;3.00;;;19.30;67.70;;;;;;4906245;29;20044;-84
2023/07/19 05:57:50;;;;;;;7.93;3.20;;;19.20;67.70;;;;;;4902453;29;20082;-84
2023/07/19 06:00:24;;;;;;;9.77;2.92;;;19.10;68.10;;;;;;4904632;28;20432;-84
2023/07/19 06:02:53;;;;;;;9.15;2.90;;;19.20;68.20;;;;;;4910494;29;20520;-84
2023/07/19 06:05:19;;;;;;;7.53;3.10;;;19.30;68.00;;;;;;4912472;28;20060;-83
2023/07/19 06:07:46;;;;;;;12.18;3.33;;;19.20;67.90;;;;;;4911574;29;20503;-81
2023/07/19 06:10:13;;;;;;;8.73;2.85;;;19.30;67.90;;;;;;4903687;28;20048;-82
2023/07/19 06:12:40;;;;;;;10.27;3.00;;;19.40;67.50;;;;;;4905686;29;20027;-83
2023/07/19 06:15:06;;;;;;;10.20;3.25;;;19.50;67.70;;;;;;4914408;29;20663;-81
2023/07/19 06:17:32;;;;;;;9.00;2.90;;;19.60;67.20;;;;;;4911189;29;20059;-83
2023/07/19 06:19:57;;;;;;;9.77;2.70;;;19.70;66.90;;;;;;4912456;28;20074;-83
2023/07/19 06:22:23;;;;;;;8.48;2.80;;;19.70;66.70;;;;;;4909139;29;20056;-82
2023/07/19 06:24:49;;;;;;;13.02;2.88;;;19.80;66.30;;;;;;4911024;29;20066;-82
2023/07/19 06:27:16;;;;;;;9.13;3.08;;;19.80;66.30;;;;;;4908479;29;20040;-82
2023/07/19 06:29:45;;;;;;;10.63;2.70;;;20.00;65.60;;;;;;4914570;29;20054;-82
2023/07/19 06:32:11;;;;;;;7.25;2.65;;;20.00;65.50;;;;;;4915287;29;20116;-82
2023/07/19 06:34:36;;;;;;;10.13;3.10;;;20.00;65.50;;;;;;4907547;29;20036;-82
2023/07/19 06:37:02;;;;;;;11.75;3.40;;;20.00;65.60;;;;;;4904389;28;20052;-84
2023/07/19 06:39:29;;;;;;;10.65;3.03;;;19.90;65.60;;;;;;4907367;29;20095;-85
2023/07/19 06:41:55;;;;;;;10.85;3.00;;;20.00;65.60;;;;;;4910708;29;20059;-86
2023/07/19 06:44:20;;;;;;;9.07;3.13;;;20.00;65.70;;;;;;4913975;29;20481;-85
2023/07/19 06:46:46;;;;;;;10.20;2.67;;;20.40;65.50;;;;;;4909914;28;20103;-85
2023/07/19 06:49:12;;;;;;;11.05;3.10;;;20.50;65.00;;;;;;4898733;29;20401;-83
2023/07/19 06:51:38;;;;;;;14.70;3.15;;;20.40;65.00;;;;;;4908596;28;20055;-82
2023/07/19 06:54:03;;;;;;;8.57;2.80;;;20.00;65.70;;;;;;4913167;29;20032;-84
2023/07/19 06:56:29;;;;;;;9.93;3.13;;;19.80;66.10;;;;;;4911800;28;20040;-82
2023/07/19 06:58:55;;;;;;;11.68;3.03;;;19.90;66.30;;;;;;4906684;29;20528;-83
2023/07/19 07:01:20;;;;;;;9.57;3.10;;;19.80;67.10;;;;;;4902647;29;20052;-84
2023/07/19 07:03:46;;;;;;;9.68;3.40;;;20.10;66.60;;;;;;4908384;29;20394;-85
2023/07/19 07:06:12;;;;;;;10.32;3.22;;;19.90;67.10;;;;;;4907276;28;20040;-83
2023/07/19 07:08:37;;;;;;;9.32;2.65;;;19.80;67.90;;;;;;4920110;29;20070;-81
2023/07/19 07:11:04;;;;;;;10.85;3.00;;;20.00;67.70;;;;;;4907876;28;20039;-81
2023/07/19 07:13:30;;;;;;;10.32;3.88;;;20.00;67.50;;;;;;4914528;29;20032;-80
2023/07/19 07:15:57;;;;;;;13.73;3.08;;;20.10;67.50;;;;;;4912386;29;20028;-80
2023/07/19 07:18:23;;;;;;;9.98;3.13;;;20.40;67.00;;;;;;4900515;29;20479;-80
2023/07/19 07:20:51;;;;;;;9.43;2.70;;;20.80;65.10;;;;;;4909343;29;20066;-79
2023/07/19 07:23:17;;;;;;;11.30;3.53;;;20.70;64.90;;;;;;4917354;29;20028;-79
2023/07/19 07:25:43;;;;;;;9.07;2.88;;;20.60;65.70;;;;;;4911059;28;20118;-80
2023/07/19 07:28:09;;;;;;;11.55;3.40;;;20.60;66.30;;;;;;4906724;29;20028;-79
2023/07/19 07:30:36;;;;;;;9.88;3.33;;;20.60;66.80;;;;;;4916267;28;20055;-79
2023/07/19 07:33:02;;;;;;;8.60;3.17;;;20.90;66.50;;;;;;4911429;29;20058;-81
2023/07/19 07:35:28;;;;;;;10.85;3.50;;;21.00;66.40;;;;;;4908634;28;20048;-79
2023/07/19 07:37:54;;;;;;;11.65;3.70;;;21.10;66.20;;;;;;4911231;29;20055;-79
2023/07/19 07:40:20;;;;;;;11.18;3.20;;;21.50;66.00;;;;;;4906882;28;20052;-80
2023/07/19 07:42:46;;;;;;;9.73;3.30;;;21.60;64.80;;;;;;4910376;29;20107;-80
2023/07/19 07:45:12;;;;;;;11.85;3.97;;;21.50;64.70;;;;;;4900127;28;20420;-80
2023/07/19 07:47:38;;;;;;;11.23;3.88;;;21.30;65.30;;;;;;4910425;29;20485;-81
2023/07/19 07:50:04;;;;;;;7.53;2.60;;;21.60;65.40;;;;;;4905694;28;20028;-81
2023/07/19 07:52:31;;;;;;;9.05;3.30;;;22.10;64.80;;;;;;4905063;29;20036;-80
2023/07/19 07:54:56;;;;;;;9.30;3.00;;;22.40;63.80;;;;;;4901994;28;20143;-81
2023/07/19 07:57:22;;;;;;;8.35;3.33;;;22.60;63.00;;;;;;4899885;29;20450;-80
2023/07/19 07:59:47;;;;;;;5.05;2.75;;;22.20;63.60;;;;;;4905639;29;20056;-80
2023/07/19 08:02:13;;;;;;;7.85;3.33;;;21.80;64.70;;;;;;4912599;29;20242;-84
2023/07/19 08:04:39;;;;;;;8.02;2.85;;;21.50;65.70;;;;;;4906614;29;20024;-79
2023/07/19 08:07:05;;;;;;;7.90;2.92;;;21.50;66.70;;;;;;4902956;29;20042;-80
2023/07/19 08:09:32;;;;;;;7.72;2.40;;;21.70;66.40;;;;;;4904350;29;20404;-80
2023/07/19 08:11:58;;;;;;;6.43;2.78;;;21.40;67.20;;;;;;4907168;29;20048;-80
2023/07/19 08:14:24;;;;;;;6.93;2.70;;;21.10;68.40;;;;;;4902932;29;20111;-79
2023/07/19 08:16:52;;;;;;;6.60;2.50;;;21.10;68.70;;;;;;4909487;28;20034;-79
2023/07/19 08:19:18;;;;;;;6.40;2.60;;;20.80;69.70;;;;;;4906665;29;20040;-79
2023/07/19 08:21:44;;;;;;;6.85;2.58;;;20.80;70.10;;;;;;4909984;29;20052;-79
2023/07/19 08:24:11;;;;;;;10.15;3.55;;;20.70;70.60;;;;;;4900364;29;20392;-81
2023/07/19 08:26:37;;;;;;;7.15;3.50;;;20.30;73.20;;;;;;4900547;29;20036;-79
2023/07/19 08:29:02;;;;;;;10.63;4.88;;;20.10;75.90;;;;;;4905326;29;20023;-81
2023/07/19 08:31:28;;;;;;;10.43;4.80;;;20.10;76.90;;;;;;4903913;29;20047;-78
2023/07/19 08:33:55;;;;;;;8.13;4.80;;;20.00;78.30;;;;;;4909472;29;20376;-78
2023/07/19 08:36:20;;;;;;;8.60;4.97;;;19.80;79.20;;;;;;4905779;28;20053;-79
2023/07/19 08:38:47;;;;;;;10.73;5.95;;;19.80;80.10;;;;;;4914053;29;20196;-79
2023/07/19 08:41:17;;;;;;;9.25;5.43;;;19.80;80.00;;;;;;4913684;28;20127;-81
2023/07/19 08:43:44;;;;;;;10.60;4.85;;;19.90;81.00;;;;;;4916111;29;20564;-81
2023/07/19 08:46:14;;;;;;;7.13;4.05;;;20.00;80.50;;;;;;4908748;28;20043;-81
2023/07/19 08:48:44;;;;;;;9.27;4.10;;;20.30;80.10;;;;;;4907657;29;20051;-81
2023/07/19 08:51:12;;;;;;;6.90;3.42;;;20.80;80.60;;;;;;4905484;29;20075;-81
2023/07/19 08:53:37;;;;;;;6.95;3.50;;;21.20;79.00;;;;;;4907621;29;20103;-80
2023/07/19 08:56:04;;;;;;;5.97;3.30;;;21.60;76.40;;;;;;4903778;29;20413;-81
2023/07/19 08:58:30;;;;;;;8.32;3.50;;;21.90;76.30;;;;;;4904997;29;20063;-80
2023/07/19 09:00:55;;;;;;;7.07;3.63;;;22.10;74.60;;;;;;4912234;28;20156;-81
2023/07/19 09:03:21;;;;;;;9.85;3.40;;;22.10;73.80;;;;;;4913011;29;20230;-79
2023/07/19 09:05:47;;;;;;;10.02;3.85;;;22.10;73.20;;;;;;4899397;29;20084;-79
2023/07/19 09:08:13;;;;;;;11.80;3.33;;;21.80;72.60;;;;;;4918376;29;20076;-79
2023/07/19 09:10:44;;;;;;;7.05;3.10;;;21.70;73.10;;;;;;4907306;29;20044;-78
2023/07/19 09:13:09;;;;;;;7.18;3.42;;;21.70;73.70;;;;;;4908819;29;20056;-79
2023/07/19 09:15:38;;;;;;;5.25;3.05;;;22.00;73.50;;;;;;4913458;28;20072;-79
2023/07/19 09:18:05;;;;;;;5.10;2.72;;;22.00;73.20;;;;;;4899724;29;20036;-79
2023/07/19 09:20:35;;;;;;;11.35;2.92;;;22.10;71.20;;;;;;4907318;29;20335;-79
2023/07/19 09:23:04;;;;;;;8.27;3.38;;;22.20;70.30;;;;;;4900432;29;20020;-78
2023/07/19 09:25:30;;;;;;;6.45;2.58;;;22.10;69.60;;;;;;4906671;29;21077;-79
2023/07/19 09:27:56;;;;;;;7.53;3.28;;;22.00;70.10;;;;;;4911303;29;20027;-79
2023/07/19 09:30:22;;;;;;;7.97;3.13;;;22.00;70.20;;;;;;4910912;28;20380;-77
2023/07/19 09:33:00;;;;;;;6.15;2.80;;;22.10;70.40;;;;;;4915501;29;20077;-79
2023/07/19 09:35:28;;;;;;;7.60;3.35;;;22.20;69.20;;;;;;4903478;29;20041;-79
2023/07/19 09:37:54;;;;;;;10.23;3.37;;;22.30;67.20;;;;;;4865964;29;1195846;-78
2023/07/19 09:40:21;;;;;;;5.75;2.42;;;22.50;67.40;;;;;;4904739;28;20293;-78
2023/07/19 09:42:49;;;;;;;8.18;2.83;;;22.90;64.90;;;;;;4912351;29;20144;-79
2023/07/19 09:45:22;;;;;;;6.78;2.53;;;22.80;63.20;;;;;;4910089;29;20036;-78
2023/07/19 09:47:50;;;;;;;8.77;2.80;;;22.50;64.30;;;;;;4905015;29;20088;-78
2023/07/19 09:50:16;;;;;;;5.93;2.63;;;22.20;64.10;;;;;;4901861;29;20690;-78
2023/07/19 09:52:44;;;;;;;4.75;2.33;;;22.10;65.40;;;;;;4917723;29;20502;-78
2023/07/19 09:55:10;;;;;;;5.90;2.38;;;22.30;64.90;;;;;;4901304;28;20165;-79
2023/07/19 09:57:40;;;;;;;7.35;2.47;;;22.20;63.40;;;;;;4905650;29;20025;-78
2023/07/19 10:00:06;;;;;;;5.45;2.28;;;22.20;64.60;;;;;;4906259;29;21070;-77
2023/07/19 10:02:33;;;;;;;6.93;2.40;;;21.90;63.70;;;;;;4913884;29;20060;-78
2023/07/19 10:05:07;;;;;;;6.35;2.60;;;21.70;64.60;;;;;;4908318;29;20037;-79
2023/07/19 10:07:35;;;;;;;6.30;2.30;;;21.50;65.10;;;;;;4911693;29;20033;-78
2023/07/19 10:10:04;;;;;;;7.68;2.75;;;21.40;66.60;;;;;;4912453;28;20135;-79
2023/07/19 10:12:31;;;;;;;7.53;2.45;;;21.30;66.60;;;;;;4902492;29;20063;-79
2023/07/19 10:15:01;;;;;;;6.95;2.30;;;21.30;67.10;;;;;;4910712;28;20474;-79
2023/07/19 10:17:29;;;;;;;6.72;2.00;;;21.30;65.70;;;;;;4906954;29;20040;-79
2023/07/19 10:20:06;;;;;;;7.55;2.15;;;21.30;65.20;;;;;;4907818;29;20127;-78
2023/07/19 10:22:58;;;;;;;4.80;2.38;;;21.20;64.20;;;;;;4905590;29;20048;-80
2023/07/19 10:25:53;;;;;;;6.88;2.15;;;21.00;65.50;;;;;;4906384;29;20121;-79
2023/07/19 10:28:29;;;;;;;5.88;2.08;;;21.10;64.30;;;;;;4901121;29;20063;-79
2023/07/19 10:31:06;;;;;;;6.65;2.30;;;21.10;64.70;;;;;;4902830;29;20435;-80
2023/07/19 10:33:34;;;;;;;7.07;2.50;;;21.30;64.50;;;;;;4904946;29;20528;-80
2023/07/19 10:36:11;;;;;;;4.78;2.08;;;21.50;63.90;;;;;;4914791;29;20889;-80
2023/07/19 10:38:36;;;;;;;5.72;2.50;;;21.30;63.80;;;;;;4915848;29;20044;-80
2023/07/19 10:41:05;;;;;;;6.63;2.15;;;21.70;64.00;;;;;;4940308;29;20118;-81
2023/07/19 10:43:33;;;;;;;7.88;2.38;;;22.00;61.50;;;;;;4933841;29;20008;-79
2023/07/19 10:46:00;;;;;;;6.60;2.00;;;22.10;60.20;;;;;;4934136;28;20032;-79
2023/07/19 10:48:29;;;;;;;7.38;2.42;;;22.20;59.80;;;;;;4920846;29;20020;-78
2023/07/19 10:50:57;;;;;;;6.20;2.45;;;22.10;60.50;;;;;;4908753;29;20055;-79
2023/07/19 10:53:23;;;;;;;9.27;3.20;;;22.20;60.70;;;;;;4908622;29;20032;-79
2023/07/19 10:55:56;;;;;;;9.20;2.75;;;22.00;63.00;;;;;;4916565;29;20109;-78
2023/07/19 10:58:22;;;;;;;7.20;2.90;;;21.90;63.70;;;;;;4912796;29;20119;-80
2023/07/19 11:00:48;;;;;;;8.60;3.35;;;21.50;64.10;;;;;;4910820;28;20076;-79
2023/07/19 11:03:15;;;;;;;7.70;2.50;;;21.10;65.50;;;;;;4898536;29;20027;-79
2023/07/19 11:05:47;;;;;;;7.72;2.80;;;21.10;64.60;;;;;;4899024;29;20044;-79
2023/07/19 11:08:27;;;;;;;7.93;2.45;;;21.40;64.00;;;;;;4901125;29;20024;-79
2023/07/19 11:10:56;;;;;;;6.32;2.40;;;21.70;63.00;;;;;;4900976;29;20075;-78
2023/07/19 11:13:24;;;;;;;6.40;2.47;;;21.80;62.60;;;;;;4900984;29;20044;-79
2023/07/19 11:15:53;;;;;;;6.00;2.30;;;21.90;63.00;;;;;;4910770;28;20049;-78
2023/07/19 11:18:45;;;;;;;5.85;2.20;;;22.30;61.30;;;;;;4898694;29;20408;-79
2023/07/19 11:21:23;;;;;;;5.80;2.20;;;22.60;60.20;;;;;;4898382;28;20159;-78
2023/07/19 11:23:49;;;;;;;7.25;2.45;;;22.90;58.60;;;;;;4898352;29;20063;-79
2023/07/19 11:26:15;;;;;;;6.05;2.38;;;23.10;57.80;;;;;;4897906;28;20134;-78
2023/07/19 11:28:52;;;;;;;5.65;2.63;;;23.20;58.10;;;;;;4898149;29;20309;-78
2023/07/19 11:31:33;;;;;;;5.63;2.83;;;23.40;57.10;;;;;;4899187;28;20040;-78
2023/07/19 11:34:06;;;;;;;7.07;2.78;;;23.50;57.30;;;;;;4895823;29;20095;-78
2023/07/19 11:36:33;;;;;;;6.25;2.30;;;23.70;57.10;;;;;;4896414;28;20040;-78
2023/07/19 11:38:59;;;;;;;6.55;2.45;;;24.10;55.10;;;;;;4897454;29;20523;-78
2023/07/19 11:41:25;;;;;;;6.22;2.65;;;24.10;54.50;;;;;;4902052;28;20096;-79
2023/07/19 11:43:51;;;;;;;6.60;1.80;;;24.40;54.10;;;;;;4907106;29;20181;-78
2023/07/19 11:46:17;;;;;;;5.20;2.13;;;24.40;52.40;;;;;;4902780;28;20147;-77
2023/07/19 11:48:43;;;;;;;4.68;2.20;;;24.60;52.50;;;;;;4905403;29;20191;-78
2023/07/19 11:51:09;;;;;;;6.20;2.15;;;24.80;52.80;;;;;;4900216;29;20536;-78
2023/07/19 11:53:34;;;;;;;7.18;2.60;;;24.70;52.60;;;;;;4902146;29;20115;-78
2023/07/19 11:56:00;;;;;;;8.00;2.38;;;24.70;52.80;;;;;;4903786;28;20047;-80
2023/07/19 11:58:26;;;;;;;7.68;2.42;;;24.40;52.80;;;;;;4897711;29;20477;-79
2023/07/19 12:00:53;;;;;;;6.22;2.30;;;23.90;54.60;;;;;;4903076;29;20914;-78
2023/07/19 12:03:19;;;;;;;6.22;2.55;;;23.50;56.10;;;;;;4904327;29;20370;-78
2023/07/19 12:05:44;;;;;;;7.13;2.70;;;23.10;57.00;;;;;;4902965;28;20036;-78
2023/07/19 12:08:10;;;;;;;6.53;2.30;;;22.90;58.10;;;;;;4903994;29;20052;-78
2023/07/19 12:10:37;;;;;;;8.38;3.10;;;22.90;58.80;;;;;;4903254;28;20040;-78
2023/07/19 12:13:03;;;;;;;12.57;3.38;;;22.70;58.50;;;;;;4901328;29;20038;-78
2023/07/19 12:15:28;;;;;;;9.50;3.15;;;22.50;59.80;;;;;;4909273;28;20373;-80
2023/07/19 12:17:55;;;;;;;8.85;3.05;;;22.60;60.30;;;;;;4903422;29;20512;-79
2023/07/19 12:20:20;;;;;;;8.43;3.58;;;22.80;59.60;;;;;;4914644;28;20044;-78
2023/07/19 12:22:47;;;;;;;8.52;2.80;;;22.70;58.90;;;;;;4901830;29;20028;-79
2023/07/19 12:25:13;;;;;;;10.18;3.47;;;23.00;58.70;;;;;;4898424;28;20024;-79
2023/07/19 12:27:40;;;;;;;7.97;2.80;;;23.10;57.90;;;;;;4912132;29;20023;-79
2023/07/19 12:30:06;;;;;;;18.73;3.70;;;23.10;58.30;;;;;;4903417;28;20398;-81
2023/07/19 12:32:32;;;;;;;8.82;3.13;;;23.20;58.10;;;;;;4911794;29;20050;-79
2023/07/19 12:34:58;;;;;;;8.10;3.33;;;23.20;58.50;;;;;;4902744;28;20107;-79
2023/07/19 12:37:24;;;;;;;9.57;2.97;;;23.20;58.40;;;;;;4904713;29;20747;-78
2023/07/19 12:39:50;;;;;;;10.98;3.17;;;23.00;58.50;;;;;;4909209;29;20737;-78
2023/07/19 12:42:16;;;;;;;12.82;3.97;;;22.70;59.40;;;;;;4903891;28;20044;-78